Glenoma, Washington
Current Conditions -  °F | °C
As of 7:55 PM on Saturday 25 Oct 2014 (Local Time) from KCLS Reporting Station
Light Rain Light Rain  
Wind Chill: 52°   Ceiling: 3300
Heat Index: 52°   Visibility: 7mi
Dew Point: 50°   Wind: 6mph
Humidity: 94%   Direction: NA
Pressure: 29.62"   Gusts: NA
Location:  46.51°N, 122.16°W
Report Text: KCLS 260255Z AUTO VRB05KT 7SM -RA SCT021 BKN033 OVC055 11/10 A2962 RMK AO2
Loading
Personal Weather Stations






























Interactive Weather Map
Tropical Storm Tracking
New forecast layout! Learn more

10-Day Weather Forecast

Advertisements
Track Severe Weather on mobile